sensor_id;sensor_type;location;lat;lon;timestamp;pressure;altitude;pressure_sealevel;temperature;humidity
49473;BME280;67434;50.956;6.918;2023-02-23T00:01:40;100767.66;;;9.36;87.88
49473;BME280;67434;50.956;6.918;2023-02-23T00:04:07;100761.75;;;9.39;87.81
49473;BME280;67434;50.956;6.918;2023-02-23T00:06:33;100777.38;;;9.37;87.73
49473;BME280;67434;50.956;6.918;2023-02-23T00:09:01;100770.66;;;9.39;87.65
49473;BME280;67434;50.956;6.918;2023-02-23T00:11:27;100766.66;;;9.42;87.59
49473;BME280;67434;50.956;6.918;2023-02-23T00:13:57;100772.03;;;9.42;87.17
49473;BME280;67434;50.956;6.918;2023-02-23T00:16:24;100758.00;;;9.40;87.47
49473;BME280;67434;50.956;6.918;2023-02-23T00:18:56;100761.44;;;9.35;86.87
49473;BME280;67434;50.956;6.918;2023-02-23T00:21:33;100773.78;;;9.31;87.42
49473;BME280;67434;50.956;6.918;2023-02-23T00:24:05;100766.84;;;9.35;87.17
49473;BME280;67434;50.956;6.918;2023-02-23T00:26:32;100763.00;;;9.31;87.16
49473;BME280;67434;50.956;6.918;2023-02-23T00:29:07;100764.94;;;9.36;87.09
49473;BME280;67434;50.956;6.918;2023-02-23T00:31:34;100764.19;;;9.40;87.01
49473;BME280;67434;50.956;6.918;2023-02-23T00:34:01;100761.19;;;9.37;87.32
49473;BME280;67434;50.956;6.918;2023-02-23T00:36:29;100764.69;;;9.37;86.79
49473;BME280;67434;50.956;6.918;2023-02-23T00:38:58;100757.09;;;9.34;86.85
49473;BME280;67434;50.956;6.918;2023-02-23T00:41:25;100749.75;;;9.30;87.52
49473;BME280;67434;50.956;6.918;2023-02-23T00:44:02;100751.53;;;9.24;87.95
49473;BME280;67434;50.956;6.918;2023-02-23T00:46:29;100752.84;;;9.22;88.15
49473;BME280;67434;50.956;6.918;2023-02-23T00:48:56;100753.03;;;9.15;88.18
49473;BME280;67434;50.956;6.918;2023-02-23T00:51:23;100752.53;;;9.18;88.01
49473;BME280;67434;50.956;6.918;2023-02-23T00:53:54;100749.84;;;9.18;88.28
49473;BME280;67434;50.956;6.918;2023-02-23T00:56:19;100750.41;;;9.20;88.70
49473;BME280;67434;50.956;6.918;2023-02-23T00:58:46;100753.91;;;9.21;88.40
49473;BME280;67434;50.956;6.918;2023-02-23T01:01:12;100755.31;;;9.23;87.78
49473;BME280;67434;50.956;6.918;2023-02-23T01:03:39;100749.50;;;9.31;87.30
49473;BME280;67434;50.956;6.918;2023-02-23T01:06:07;100748.69;;;9.31;87.00
49473;BME280;67434;50.956;6.918;2023-02-23T01:08:35;100755.16;;;9.30;87.19
49473;BME280;67434;50.956;6.918;2023-02-23T01:11:10;100750.91;;;9.34;86.32
49473;BME280;67434;50.956;6.918;2023-02-23T01:13:37;100752.22;;;9.31;86.58
49473;BME280;67434;50.956;6.918;2023-02-23T01:16:06;100756.44;;;9.27;86.25
49473;BME280;67434;50.956;6.918;2023-02-23T01:18:33;100751.84;;;9.28;86.45
49473;BME280;67434;50.956;6.918;2023-02-23T01:20:59;100753.34;;;9.19;87.44
49473;BME280;67434;50.956;6.918;2023-02-23T01:23:25;100746.63;;;9.21;87.82
49473;BME280;67434;50.956;6.918;2023-02-23T01:25:50;100739.44;;;9.27;87.23
49473;BME280;67434;50.956;6.918;2023-02-23T01:28:16;100752.91;;;9.27;87.17
49473;BME280;67434;50.956;6.918;2023-02-23T01:30:41;100743.19;;;9.26;87.18
49473;BME280;67434;50.956;6.918;2023-02-23T01:33:07;100751.47;;;9.19;88.03
49473;BME280;67434;50.956;6.918;2023-02-23T01:35:33;100747.97;;;9.19;87.97
49473;BME280;67434;50.956;6.918;2023-02-23T01:37:58;100754.16;;;9.19;87.75
49473;BME280;67434;50.956;6.918;2023-02-23T01:40:25;100752.84;;;9.22;87.61
49473;BME280;67434;50.956;6.918;2023-02-23T01:42:58;100744.75;;;9.22;87.79
49473;BME280;67434;50.956;6.918;2023-02-23T01:47:53;100746.72;;;9.26;87.75
49473;BME280;67434;50.956;6.918;2023-02-23T01:50:20;100745.66;;;9.27;88.41
49473;BME280;67434;50.956;6.918;2023-02-23T01:52:49;100743.53;;;9.29;88.20
49473;BME280;67434;50.956;6.918;2023-02-23T01:55:15;100740.25;;;9.27;88.43
49473;BME280;67434;50.956;6.918;2023-02-23T01:57:48;100744.38;;;9.30;88.53
49473;BME280;67434;50.956;6.918;2023-02-23T02:00:14;100734.38;;;9.30;88.83
49473;BME280;67434;50.956;6.918;2023-02-23T02:02:40;100739.78;;;9.30;88.23
49473;BME280;67434;50.956;6.918;2023-02-23T02:05:06;100742.22;;;9.32;87.89
49473;BME280;67434;50.956;6.918;2023-02-23T02:07:41;100741.97;;;9.33;87.86
49473;BME280;67434;50.956;6.918;2023-02-23T02:10:13;100740.25;;;9.27;88.53
49473;BME280;67434;50.956;6.918;2023-02-23T02:12:42;100739.94;;;9.24;88.69
49473;BME280;67434;50.956;6.918;2023-02-23T02:15:09;100743.75;;;9.28;88.40
49473;BME280;67434;50.956;6.918;2023-02-23T02:35:16;100732.97;;;9.45;87.86
49473;BME280;67434;50.956;6.918;2023-02-23T02:46:16;100730.44;;;9.38;88.43
49473;BME280;67434;50.956;6.918;2023-02-23T02:49:05;100722.59;;;9.36;88.63
49473;BME280;67434;50.956;6.918;2023-02-23T02:51:44;100724.47;;;9.36;88.40
49473;BME280;67434;50.956;6.918;2023-02-23T02:54:17;100715.25;;;9.32;89.00
49473;BME280;67434;50.956;6.918;2023-02-23T02:56:49;100717.59;;;9.28;89.07
49473;BME280;67434;50.956;6.918;2023-02-23T02:59:19;100718.84;;;9.37;88.38
49473;BME280;67434;50.956;6.918;2023-02-23T03:02:06;100716.06;;;9.32;88.56
49473;BME280;67434;50.956;6.918;2023-02-23T03:04:50;100720.41;;;9.33;88.12
49473;BME280;67434;50.956;6.918;2023-02-23T03:07:46;100715.41;;;9.25;88.74
49473;BME280;67434;50.956;6.918;2023-02-23T03:10:46;100719.03;;;9.14;89.33
49473;BME280;67434;50.956;6.918;2023-02-23T03:13:41;100717.91;;;9.10;89.43
49473;BME280;67434;50.956;6.918;2023-02-23T03:16:55;100722.72;;;9.08;89.76
49473;BME280;67434;50.956;6.918;2023-02-23T03:23:15;100727.38;;;9.13;89.05
49473;BME280;67434;50.956;6.918;2023-02-23T03:26:12;100726.47;;;9.07;89.15
49473;BME280;67434;50.956;6.918;2023-02-23T03:29:11;100734.91;;;8.94;89.96
49473;BME280;67434;50.956;6.918;2023-02-23T03:38:28;100737.63;;;8.94;90.58
49473;BME280;67434;50.956;6.918;2023-02-23T03:41:15;100731.41;;;8.93;90.54
49473;BME280;67434;50.956;6.918;2023-02-23T03:44:05;100735.88;;;8.88;90.50
49473;BME280;67434;50.956;6.918;2023-02-23T03:46:52;100736.38;;;8.85;90.72
49473;BME280;67434;50.956;6.918;2023-02-23T03:49:38;100729.91;;;8.86;90.54
49473;BME280;67434;50.956;6.918;2023-02-23T03:52:30;100732.38;;;8.87;90.61
49473;BME280;67434;50.956;6.918;2023-02-23T03:55:20;100734.72;;;8.84;90.73
49473;BME280;67434;50.956;6.918;2023-02-23T03:58:10;100736.94;;;8.87;91.11
49473;BME280;67434;50.956;6.918;2023-02-23T04:00:58;100730.91;;;8.96;90.30
49473;BME280;67434;50.956;6.918;2023-02-23T04:03:46;100735.63;;;8.89;90.73
49473;BME280;67434;50.956;6.918;2023-02-23T04:06:35;100745.34;;;8.90;90.75
49473;BME280;67434;50.956;6.918;2023-02-23T04:09:22;100741.25;;;8.88;91.59
49473;BME280;67434;50.956;6.918;2023-02-23T04:12:18;100740.63;;;8.81;91.90
49473;BME280;67434;50.956;6.918;2023-02-23T04:15:08;100748.22;;;8.84;91.71
49473;BME280;67434;50.956;6.918;2023-02-23T04:17:35;100745.03;;;8.87;91.45
49473;BME280;67434;50.956;6.918;2023-02-23T04:20:01;100750.25;;;8.76;91.52
49473;BME280;67434;50.956;6.918;2023-02-23T04:22:26;100757.53;;;8.76;91.68
49473;BME280;67434;50.956;6.918;2023-02-23T04:24:52;100747.47;;;8.71;91.81
49473;BME280;67434;50.956;6.918;2023-02-23T04:27:17;100747.47;;;8.71;91.64
49473;BME280;67434;50.956;6.918;2023-02-23T04:29:43;100744.38;;;8.63;91.68
49473;BME280;67434;50.956;6.918;2023-02-23T04:32:14;100754.09;;;8.64;91.97
49473;BME280;67434;50.956;6.918;2023-02-23T04:34:40;100754.34;;;8.62;91.78
49473;BME280;67434;50.956;6.918;2023-02-23T04:37:06;100757.28;;;8.61;91.77
49473;BME280;67434;50.956;6.918;2023-02-23T04:39:31;100754.72;;;8.54;92.15
49473;BME280;67434;50.956;6.918;2023-02-23T04:41:57;100760.72;;;8.56;91.70
49473;BME280;67434;50.956;6.918;2023-02-23T04:44:22;100758.09;;;8.61;91.46
49473;BME280;67434;50.956;6.918;2023-02-23T04:46:47;100755.97;;;8.63;91.43
49473;BME280;67434;50.956;6.918;2023-02-23T04:49:13;100761.16;;;8.53;91.99
49473;BME280;67434;50.956;6.918;2023-02-23T04:51:38;100760.59;;;8.51;92.31
49473;BME280;67434;50.956;6.918;2023-02-23T04:54:04;100759.53;;;8.52;92.28
49473;BME280;67434;50.956;6.918;2023-02-23T04:56:30;100762.34;;;8.57;92.18
49473;BME280;67434;50.956;6.918;2023-02-23T04:58:55;100762.09;;;8.59;91.96
49473;BME280;67434;50.956;6.918;2023-02-23T05:01:21;100765.50;;;8.54;91.28
49473;BME280;67434;50.956;6.918;2023-02-23T05:03:48;100764.34;;;8.50;91.18
49473;BME280;67434;50.956;6.918;2023-02-23T05:06:14;100766.72;;;8.46;91.65
49473;BME280;67434;50.956;6.918;2023-02-23T05:08:40;100762.63;;;8.44;91.25
49473;BME280;67434;50.956;6.918;2023-02-23T05:11:06;100766.13;;;8.44;91.36
49473;BME280;67434;50.956;6.918;2023-02-23T05:13:32;100765.78;;;8.41;91.24
49473;BME280;67434;50.956;6.918;2023-02-23T05:15:57;100765.78;;;8.41;91.65
49473;BME280;67434;50.956;6.918;2023-02-23T05:18:23;100771.19;;;8.41;91.98
49473;BME280;67434;50.956;6.918;2023-02-23T05:20:49;100777.16;;;8.43;91.15
49473;BME280;67434;50.956;6.918;2023-02-23T05:23:14;100772.00;;;8.41;91.54
49473;BME280;67434;50.956;6.918;2023-02-23T05:25:40;100779.75;;;8.38;91.96
49473;BME280;67434;50.956;6.918;2023-02-23T05:28:06;100780.91;;;8.42;91.60
49473;BME280;67434;50.956;6.918;2023-02-23T05:30:31;100780.56;;;8.38;91.96
49473;BME280;67434;50.956;6.918;2023-02-23T05:32:57;100780.31;;;8.40;91.47
49473;BME280;67434;50.956;6.918;2023-02-23T05:35:23;100785.72;;;8.40;91.78
49473;BME280;67434;50.956;6.918;2023-02-23T05:37:48;100780.91;;;8.42;91.20
49473;BME280;67434;50.956;6.918;2023-02-23T05:40:14;100790.84;;;8.41;91.35
49473;BME280;67434;50.956;6.918;2023-02-23T05:42:39;100788.75;;;8.43;91.45
49473;BME280;67434;50.956;6.918;2023-02-23T05:45:05;100783.09;;;8.45;91.06
49473;BME280;67434;50.956;6.918;2023-02-23T05:47:32;100780.31;;;8.40;91.58
49473;BME280;67434;50.956;6.918;2023-02-23T05:49:59;100783.25;;;8.38;91.54
49473;BME280;67434;50.956;6.918;2023-02-23T05:52:25;100783.59;;;8.42;91.11
49473;BME280;67434;50.956;6.918;2023-02-23T05:54:50;100787.44;;;8.46;90.43
49473;BME280;67434;50.956;6.918;2023-02-23T05:57:16;100796.34;;;8.46;90.86
49473;BME280;67434;50.956;6.918;2023-02-23T05:59:41;100789.16;;;8.52;91.20
49473;BME280;67434;50.956;6.918;2023-02-23T06:02:06;100791.84;;;8.52;90.83
49473;BME280;67434;50.956;6.918;2023-02-23T06:04:33;100789.88;;;8.48;91.30
49473;BME280;67434;50.956;6.918;2023-02-23T06:06:58;100796.66;;;8.50;91.34
49473;BME280;67434;50.956;6.918;2023-02-23T06:09:24;100788.91;;;8.54;91.48
49473;BME280;67434;50.956;6.918;2023-02-23T06:11:52;100796.66;;;8.50;91.38
49473;BME280;67434;50.956;6.918;2023-02-23T06:14:18;100797.81;;;8.54;91.31
49473;BME280;67434;50.956;6.918;2023-02-23T06:16:43;100798.22;;;8.46;91.24
49473;BME280;67434;50.956;6.918;2023-02-23T06:19:10;100798.88;;;8.53;90.88
49473;BME280;67434;50.956;6.918;2023-02-23T06:21:35;100800.19;;;8.51;90.82
49473;BME280;67434;50.956;6.918;2023-02-23T06:24:04;100807.13;;;8.46;91.05
49473;BME280;67434;50.956;6.918;2023-02-23T06:26:30;100802.44;;;8.42;91.18
49473;BME280;67434;50.956;6.918;2023-02-23T06:28:56;100803.28;;;8.42;91.48
49473;BME280;67434;50.956;6.918;2023-02-23T06:31:22;100803.28;;;8.42;91.15
49473;BME280;67434;50.956;6.918;2023-02-23T06:33:47;100803.13;;;8.49;91.11
49473;BME280;67434;50.956;6.918;2023-02-23T06:36:19;100810.63;;;8.47;91.26
49473;BME280;67434;50.956;6.918;2023-02-23T06:38:45;100809.41;;;8.55;90.83
49473;BME280;67434;50.956;6.918;2023-02-23T06:41:11;100813.41;;;8.52;90.98
49473;BME280;67434;50.956;6.918;2023-02-23T06:43:42;100823.03;;;8.48;91.27
49473;BME280;67434;50.956;6.918;2023-02-23T06:46:08;100816.50;;;8.44;91.37
49473;BME280;67434;50.956;6.918;2023-02-23T06:48:34;100826.31;;;8.50;91.49
49473;BME280;67434;50.956;6.918;2023-02-23T06:51:00;100824.34;;;8.45;91.28
49473;BME280;67434;50.956;6.918;2023-02-23T06:53:26;100823.03;;;8.48;91.21
49473;BME280;67434;50.956;6.918;2023-02-23T06:55:51;100829.72;;;8.45;91.52
49473;BME280;67434;50.956;6.918;2023-02-23T06:58:17;100829.00;;;8.50;91.52
49473;BME280;67434;50.956;6.918;2023-02-23T07:00:42;100836.97;;;8.57;91.01
49473;BME280;67434;50.956;6.918;2023-02-23T07:03:08;100844.44;;;8.55;91.11
49473;BME280;67434;50.956;6.918;2023-02-23T07:05:34;100842.19;;;8.63;91.01
49473;BME280;67434;50.956;6.918;2023-02-23T07:07:59;100845.38;;;8.60;90.93
49473;BME280;67434;50.956;6.918;2023-02-23T07:10:25;100847.25;;;8.60;91.20
49473;BME280;67434;50.956;6.918;2023-02-23T07:12:52;100846.53;;;8.64;90.52
49473;BME280;67434;50.956;6.918;2023-02-23T07:15:18;100850.53;;;8.62;90.51
49473;BME280;67434;50.956;6.918;2023-02-23T07:17:44;100864.16;;;8.55;91.10
49473;BME280;67434;50.956;6.918;2023-02-23T07:20:13;100858.28;;;8.58;90.65
49473;BME280;67434;50.956;6.918;2023-02-23T07:22:40;100864.25;;;8.60;90.66
49473;BME280;67434;50.956;6.918;2023-02-23T07:25:06;100873.72;;;8.63;90.33
49473;BME280;67434;50.956;6.918;2023-02-23T07:27:32;100864.91;;;8.67;89.58
49473;BME280;67434;50.956;6.918;2023-02-23T07:29:58;100877.09;;;8.70;89.75
49473;BME280;67434;50.956;6.918;2023-02-23T07:32:24;100867.03;;;8.65;89.30
49473;BME280;67434;50.956;6.918;2023-02-23T07:34:49;100874.78;;;8.62;89.55
49473;BME280;67434;50.956;6.918;2023-02-23T07:37:14;100878.06;;;8.64;89.70
49473;BME280;67434;50.956;6.918;2023-02-23T07:39:44;100879.53;;;8.71;89.71
49473;BME280;67434;50.956;6.918;2023-02-23T07:42:09;100875.72;;;8.84;88.18
49473;BME280;67434;50.956;6.918;2023-02-23T07:44:35;100876.78;;;8.83;88.48
49473;BME280;67434;50.956;6.918;2023-02-23T07:47:00;100879.31;;;8.90;88.93
49473;BME280;67434;50.956;6.918;2023-02-23T07:49:25;100887.03;;;8.98;88.21
49473;BME280;67434;50.956;6.918;2023-02-23T07:51:51;100880.91;;;9.02;87.95
49473;BME280;67434;50.956;6.918;2023-02-23T07:54:17;100879.69;;;8.93;87.83
49473;BME280;67434;50.956;6.918;2023-02-23T07:56:42;100888.69;;;8.99;87.51
49473;BME280;67434;50.956;6.918;2023-02-23T07:59:07;100889.16;;;8.96;87.14
49473;BME280;67434;50.956;6.918;2023-02-23T08:01:33;100892.34;;;8.93;87.46
49473;BME280;67434;50.956;6.918;2023-02-23T08:03:58;100889.19;;;8.84;87.40
49473;BME280;67434;50.956;6.918;2023-02-23T08:06:24;100890.06;;;8.73;88.03
49473;BME280;67434;50.956;6.918;2023-02-23T08:08:50;100899.06;;;8.78;88.06
49473;BME280;67434;50.956;6.918;2023-02-23T08:11:15;100899.47;;;8.70;88.80
49473;BME280;67434;50.956;6.918;2023-02-23T08:13:41;100902.16;;;8.70;88.58
49473;BME280;67434;50.956;6.918;2023-02-23T08:16:06;100905.03;;;8.81;88.67
49473;BME280;67434;50.956;6.918;2023-02-23T08:18:32;100903.81;;;8.88;87.82
49473;BME280;67434;50.956;6.918;2023-02-23T08:21:01;100912.03;;;8.93;87.79
49473;BME280;67434;50.956;6.918;2023-02-23T08:23:31;100914.00;;;8.98;87.59
49473;BME280;67434;50.956;6.918;2023-02-23T08:25:59;100909.56;;;8.92;87.67
49473;BME280;67434;50.956;6.918;2023-02-23T08:28:26;100913.09;;;8.92;87.75
49473;BME280;67434;50.956;6.918;2023-02-23T08:30:51;100898.66;;;8.98;87.90
49473;BME280;67434;50.956;6.918;2023-02-23T08:33:17;100915.63;;;8.99;87.84
49473;BME280;67434;50.956;6.918;2023-02-23T08:35:42;100910.81;;;9.01;87.51
49473;BME280;67434;50.956;6.918;2023-02-23T08:38:08;100909.44;;;8.98;87.27
49473;BME280;67434;50.956;6.918;2023-02-23T08:40:33;100920.22;;;8.98;87.30
49473;BME280;67434;50.956;6.918;2023-02-23T08:42:59;100925.72;;;8.92;87.73
49473;BME280;67434;50.956;6.918;2023-02-23T08:45:24;100923.28;;;8.90;87.92
49473;BME280;67434;50.956;6.918;2023-02-23T08:47:49;100926.34;;;8.94;87.57
49473;BME280;67434;50.956;6.918;2023-02-23T08:50:15;100916.97;;;8.85;87.96
49473;BME280;67434;50.956;6.918;2023-02-23T08:52:41;100926.94;;;8.84;88.05
49473;BME280;67434;50.956;6.918;2023-02-23T08:55:07;100935.00;;;8.96;88.06
49473;BME280;67434;50.956;6.918;2023-02-23T08:57:33;100940.25;;;8.91;88.13
49473;BME280;67434;50.956;6.918;2023-02-23T08:59:59;100939.59;;;8.84;88.93
49473;BME280;67434;50.956;6.918;2023-02-23T09:02:24;100939.44;;;8.90;88.79
49473;BME280;67434;50.956;6.918;2023-02-23T09:04:51;100940.97;;;8.98;88.34
49473;BME280;67434;50.956;6.918;2023-02-23T09:07:20;100931.66;;;9.05;88.12
49473;BME280;67434;50.956;6.918;2023-02-23T09:09:57;100932.53;;;8.94;88.64
49473;BME280;67434;50.956;6.918;2023-02-23T09:12:22;100938.03;;;8.99;88.37
49473;BME280;67434;50.956;6.918;2023-02-23T09:14:48;100946.72;;;8.90;88.67
49473;BME280;67434;50.956;6.918;2023-02-23T09:17:16;100939.69;;;8.89;88.89
49473;BME280;67434;50.956;6.918;2023-02-23T09:19:41;100940.19;;;8.86;89.08
49473;BME280;67434;50.956;6.918;2023-02-23T09:22:06;100942.88;;;8.86;88.70
49473;BME280;67434;50.956;6.918;2023-02-23T09:24:32;100946.53;;;8.80;89.35
49473;BME280;67434;50.956;6.918;2023-02-23T09:27:01;100944.50;;;8.87;88.98
49473;BME280;67434;50.956;6.918;2023-02-23T09:29:26;100947.53;;;8.90;88.51
49473;BME280;67434;50.956;6.918;2023-02-23T09:31:52;100948.66;;;9.06;88.24
49473;BME280;67434;50.956;6.918;2023-02-23T09:34:18;100951.44;;;9.11;88.29
49473;BME280;67434;50.956;6.918;2023-02-23T09:36:43;100947.94;;;9.11;88.00
49473;BME280;67434;50.956;6.918;2023-02-23T09:39:09;100955.06;;;9.17;87.88
49473;BME280;67434;50.956;6.918;2023-02-23T09:41:55;100954.00;;;9.18;87.93
49473;BME280;67434;50.956;6.918;2023-02-23T09:49:42;100967.81;;;9.21;87.29
49473;BME280;67434;50.956;6.918;2023-02-23T09:52:15;100968.88;;;9.20;86.94
49473;BME280;67434;50.956;6.918;2023-02-23T09:54:45;100965.94;;;9.22;86.59
49473;BME280;67434;50.956;6.918;2023-02-23T09:57:16;100967.16;;;9.14;87.04
49473;BME280;67434;50.956;6.918;2023-02-23T09:59:43;100966.75;;;9.22;87.06
49473;BME280;67434;50.956;6.918;2023-02-23T10:02:19;100972.09;;;9.34;86.51
49473;BME280;67434;50.956;6.918;2023-02-23T10:04:52;100976.63;;;9.17;86.96
49473;BME280;67434;50.956;6.918;2023-02-23T10:07:25;100981.94;;;9.12;87.08
49473;BME280;67434;50.956;6.918;2023-02-23T10:13:07;100974.47;;;9.02;87.55
49473;BME280;67434;50.956;6.918;2023-02-23T10:15:56;100982.41;;;9.08;87.27
49473;BME280;67434;50.956;6.918;2023-02-23T10:18:36;100988.63;;;9.09;87.16
49473;BME280;67434;50.956;6.918;2023-02-23T10:23:52;100998.84;;;9.07;86.87
49473;BME280;67434;50.956;6.918;2023-02-23T10:26:26;100989.50;;;8.98;87.30
49473;BME280;67434;50.956;6.918;2023-02-23T10:28:57;100985.25;;;9.02;87.29
49473;BME280;67434;50.956;6.918;2023-02-23T10:31:32;100991.63;;;8.96;87.22
49473;BME280;67434;50.956;6.918;2023-02-23T10:34:04;100988.34;;;8.94;87.45
49473;BME280;67434;50.956;6.918;2023-02-23T10:36:38;101000.03;;;8.99;87.54
49473;BME280;67434;50.956;6.918;2023-02-23T10:39:07;100997.19;;;9.06;87.67
49473;BME280;67434;50.956;6.918;2023-02-23T10:41:35;101000.72;;;9.06;86.61
49473;BME280;67434;50.956;6.918;2023-02-23T10:44:03;100999.66;;;9.07;86.83
49473;BME280;67434;50.956;6.918;2023-02-23T10:46:36;101007.03;;;9.12;87.08
49473;BME280;67434;50.956;6.918;2023-02-23T10:49:03;101005.53;;;9.04;87.01
49473;BME280;67434;50.956;6.918;2023-02-23T10:51:35;101002.16;;;8.97;87.48
49473;BME280;67434;50.956;6.918;2023-02-23T10:54:33;101007.31;;;8.99;87.39
49473;BME280;67434;50.956;6.918;2023-02-23T10:56:59;101008.94;;;9.00;87.70
49473;BME280;67434;50.956;6.918;2023-02-23T10:59:27;101002.16;;;8.97;87.89
49473;BME280;67434;50.956;6.918;2023-02-23T11:01:52;101005.91;;;8.96;87.68
49473;BME280;67434;50.956;6.918;2023-02-23T11:04:25;101007.16;;;9.05;87.01
49473;BME280;67434;50.956;6.918;2023-02-23T11:07:12;101011.75;;;9.05;86.58
49473;BME280;67434;50.956;6.918;2023-02-23T11:09:39;101002.03;;;9.04;86.56
49473;BME280;67434;50.956;6.918;2023-02-23T11:12:38;101009.78;;;9.00;86.71
49473;BME280;67434;50.956;6.918;2023-02-23T11:15:30;101012.56;;;9.05;86.50
49473;BME280;67434;50.956;6.918;2023-02-23T11:17:59;101011.06;;;8.98;86.79
49473;BME280;67434;50.956;6.918;2023-02-23T11:20:30;101016.91;;;9.06;86.19
49473;BME280;67434;50.956;6.918;2023-02-23T11:23:00;101010.28;;;9.14;86.32
49473;BME280;67434;50.956;6.918;2023-02-23T11:25:32;101011.75;;;9.05;85.87
49473;BME280;67434;50.956;6.918;2023-02-23T11:27:58;101012.56;;;9.05;85.73
49473;BME280;67434;50.956;6.918;2023-02-23T11:30:29;101003.16;;;9.08;85.52
49473;BME280;67434;50.956;6.918;2023-02-23T11:32:59;101008.13;;;8.99;85.80
49473;BME280;67434;50.956;6.918;2023-02-23T11:35:33;101001.44;;;9.02;85.73
49473;BME280;67434;50.956;6.918;2023-02-23T11:38:14;101005.19;;;9.01;85.37
49473;BME280;67434;50.956;6.918;2023-02-23T11:40:40;101005.19;;;9.01;85.57
49473;BME280;67434;50.956;6.918;2023-02-23T11:43:14;101003.69;;;8.93;85.62
49473;BME280;67434;50.956;6.918;2023-02-23T11:45:51;100996.19;;;8.95;85.91
49473;BME280;67434;50.956;6.918;2023-02-23T11:48:39;100992.53;;;8.90;84.82
49473;BME280;67434;50.956;6.918;2023-02-23T11:51:09;101005.44;;;8.88;85.05
49473;BME280;67434;50.956;6.918;2023-02-23T11:53:36;100999.84;;;8.77;85.33
49473;BME280;67434;50.956;6.918;2023-02-23T11:56:05;100987.53;;;8.82;85.34
49473;BME280;67434;50.956;6.918;2023-02-23T11:58:45;100991.16;;;8.87;85.43
49473;BME280;67434;50.956;6.918;2023-02-23T12:01:16;100987.28;;;8.95;85.54
49473;BME280;67434;50.956;6.918;2023-02-23T12:03:56;100997.09;;;9.01;85.17
49473;BME280;67434;50.956;6.918;2023-02-23T12:09:10;101002.75;;;8.99;84.29
49473;BME280;67434;50.956;6.918;2023-02-23T12:11:48;101000.81;;;8.71;85.41
49473;BME280;67434;50.956;6.918;2023-02-23T12:14:42;100994.16;;;8.62;86.22
49473;BME280;67434;50.956;6.918;2023-02-23T12:17:20;100994.28;;;8.56;86.30
49473;BME280;67434;50.956;6.918;2023-02-23T12:20:05;100993.25;;;8.57;85.41
49473;BME280;67434;50.956;6.918;2023-02-23T12:22:38;100988.09;;;8.55;85.82
49473;BME280;67434;50.956;6.918;2023-02-23T12:25:37;100990.16;;;8.53;85.51
49473;BME280;67434;50.956;6.918;2023-02-23T12:31:05;100992.53;;;8.61;84.62
49473;BME280;67434;50.956;6.918;2023-02-23T12:33:44;100990.41;;;8.63;84.91
49473;BME280;67434;50.956;6.918;2023-02-23T12:38:50;100989.38;;;8.41;85.82
49473;BME280;67434;50.956;6.918;2023-02-23T12:41:43;100991.50;;;8.39;85.58
49473;BME280;67434;50.956;6.918;2023-02-23T12:44:21;100991.38;;;8.22;86.07
49473;BME280;67434;50.956;6.918;2023-02-23T12:46:56;100989.50;;;8.23;86.92
49473;BME280;67434;50.956;6.918;2023-02-23T12:49:31;100998.75;;;8.27;86.79
49473;BME280;67434;50.956;6.918;2023-02-23T12:52:08;101002.25;;;8.27;87.12
49473;BME280;67434;50.956;6.918;2023-02-23T12:54:39;101000.47;;;8.33;87.70
49473;BME280;67434;50.956;6.918;2023-02-23T12:57:22;101005.06;;;8.44;87.20
49473;BME280;67434;50.956;6.918;2023-02-23T13:00:24;101003.31;;;8.50;86.49
49473;BME280;67434;50.956;6.918;2023-02-23T13:03:49;100999.44;;;8.57;85.84
49473;BME280;67434;50.956;6.918;2023-02-23T13:09:41;100992.41;;;8.56;84.20
49473;BME280;67434;50.956;6.918;2023-02-23T13:12:17;100992.75;;;8.60;84.67
49473;BME280;67434;50.956;6.918;2023-02-23T13:17:36;100997.53;;;8.69;83.80
49473;BME280;67434;50.956;6.918;2023-02-23T13:22:54;100998.59;;;8.68;83.70
49473;BME280;67434;50.956;6.918;2023-02-23T13:27:57;101000.13;;;8.64;83.71
49473;BME280;67434;50.956;6.918;2023-02-23T13:30:24;100995.44;;;8.71;84.42
49473;BME280;67434;50.956;6.918;2023-02-23T13:32:51;100992.16;;;8.69;84.19
49473;BME280;67434;50.956;6.918;2023-02-23T13:35:19;100999.66;;;8.67;83.96
49473;BME280;67434;50.956;6.918;2023-02-23T13:43:15;101001.69;;;8.37;84.37
49473;BME280;67434;50.956;6.918;2023-02-23T13:48:42;101003.88;;;8.28;84.74
49473;BME280;67434;50.956;6.918;2023-02-23T13:54:21;101000.47;;;8.33;84.07
49473;BME280;67434;50.956;6.918;2023-02-23T13:56:50;101014.22;;;8.43;83.08
49473;BME280;67434;50.956;6.918;2023-02-23T13:59:20;101009.50;;;8.50;82.97
49473;BME280;67434;50.956;6.918;2023-02-23T14:01:49;101008.13;;;8.59;82.74
49473;BME280;67434;50.956;6.918;2023-02-23T14:07:13;101012.06;;;8.68;81.01
49473;BME280;67434;50.956;6.918;2023-02-23T14:10:05;101011.97;;;8.52;81.89
49473;BME280;67434;50.956;6.918;2023-02-23T14:12:39;101007.75;;;8.44;82.30
49473;BME280;67434;50.956;6.918;2023-02-23T14:36:28;101001.06;;;9.10;79.53
49473;BME280;67434;50.956;6.918;2023-02-23T14:39:17;101018.44;;;9.02;79.93
49473;BME280;67434;50.956;6.918;2023-02-23T14:42:05;101008.03;;;8.83;79.83
49473;BME280;67434;50.956;6.918;2023-02-23T14:44:37;101009.78;;;8.89;79.90
49473;BME280;67434;50.956;6.918;2023-02-23T14:47:17;101008.72;;;9.01;79.88
49473;BME280;67434;50.956;6.918;2023-02-23T14:49:50;101015.75;;;9.02;79.03
49473;BME280;67434;50.956;6.918;2023-02-23T14:52:26;101018.81;;;8.94;78.51
49473;BME280;67434;50.956;6.918;2023-02-23T14:55:15;101017.06;;;8.88;79.14
49473;BME280;67434;50.956;6.918;2023-02-23T14:57:42;101016.22;;;8.88;78.93
49473;BME280;67434;50.956;6.918;2023-02-23T15:03:06;101019.69;;;8.71;78.68
49473;BME280;67434;50.956;6.918;2023-02-23T15:05:46;101019.13;;;8.58;79.15
49473;BME280;67434;50.956;6.918;2023-02-23T15:08:22;101017.47;;;8.45;80.01
49473;BME280;67434;50.956;6.918;2023-02-23T15:10:51;101010.56;;;8.49;79.55